Tim Dest

Scout - FC Cincinnati
6 Mai 2027
Donnerstag
Verarbeitung

Persönlichkeit

Anpassungsfähigkeit (17) Ehrgeiz (1) Kontroverse (7) Loyalität (13) Druck (4) Professionalität (11) Fairness (10) Temperament (13)

Profil

Trainerstil Demokratisch
Lizenz Kontinentale Pro
Entschlossenheit 10
Menschenführung 10
Motivation 11
Disziplin 8
Arbeitszufriedenheit
49%
Ermüdung
0%
Rolle Scout
Gehalt 42.6K p/W
Vertrag 14.03.2029

Leistung

Verhalten Normal
Trainingseffektivität
18%
Spielerentwicklung
20%
Verletzungsprävention
25%
Taktische Umsetzung
45%

Letzte Ereignisse

Nahm an einer Scouting-Besprechung teil 14T her
Nahm an einer Scouting-Besprechung teil 21T her
Spieler begutachtet 28T her
Nahm an einer Scouting-Besprechung teil 28T her
Legte dem Vorstand ein Dossier vor 28T her
Nahm an einer Scouting-Besprechung teil 35T her
Nahm an einer Scouting-Besprechung teil 42T her
Nahm an einer Scouting-Besprechung teil 49T her

Aktuell beobachtet

86
Spieler Verein Status Fähigkeit Vertrauen Beobachtet Zuletzt beobachtet Letzte Stimme
Ernie Weaver AFC Wimbledon Aktiv 111 / 116 40% 1 05.04.2027 -
Josh Smith Accrington Stanley Aktiv 88 / 83 40% 1 05.04.2027 -
James Morris Leyton Orient Aktiv 106 / 109 40% 1 12.02.2027 -
Alfie Doughty Millwall Verloren 128 / 136 40% 1 12.02.2027 -
Leo Castledine Middlesbrough Aktiv 136 / 123 40% 1 12.02.2027 -
Fletcher Holman Swindon Town Aktiv 77 / 96 40% 1 12.02.2027 -
Oliver Skipp Leicester City Aktiv 133 / 121 40% 1 10.02.2027 -
Jack MacKenzie Plymouth Argyle Aktiv 102 / 115 40% 1 10.02.2027 -
Keagan Mokoena Free State Stars Aktiv 88 / 105 40% 2 08.02.2027 -
Federico Serra Arezzo Aktiv 76 / 87 40% 1 08.02.2027 -
Thulani Erasmus Platinum Stars Aktiv 100 / 95 40% 7 07.02.2027 -
Anestis Mythou PAOK Aktiv 86 / 89 40% 1 07.02.2027 -
Mateus Mané Manchester United Aktiv 122 / 142 40% 2 06.02.2027 -
Ichem Ferrah Pisa Aktiv 113 / 121 40% 1 06.02.2027 -
Iwan Morgan Grimsby Town Aktiv 105 / 121 40% 1 05.02.2027 -
Sule John US Forces Armees Aktiv 67 / 84 40% 1 05.02.2027 -
Amaury Morales Pumas UNAM Aktiv 122 / 112 40% 1 04.02.2027 -
Godbless Ayeke AS Korofina Aktiv 62 / 82 40% 1 04.02.2027 -
Jacques Ekomié Wrexham Verloren 137 / 134 40% 1 01.02.2027 -
Bosun Lawal Stoke City Verloren 116 / 131 40% 1 01.02.2027 Mehr Infos nötig
Hassan Beja AFC Leopards Aktiv 73 / 72 40% 3 31.01.2027 -
Miloš Jovičić Zabbar St. Patrick Aktiv 95 / 103 40% 1 31.01.2027 -
Joel Orlando Almagro Aktiv 128 / 110 40% 2 28.01.2027 -
Luke Baartman ES Mostaganem Aktiv 111 / 113 40% 2 28.01.2027 -
Harrison Ofori Liberty Professionals Aktiv 103 / 90 40% 2 27.01.2027 -
Mirko Topić Norwich City Aktiv 132 / 130 40% 1 27.01.2027 -
Brian De Keersmaecker Oxford United Aktiv 128 / 130 40% 1 27.01.2027 -
Alagie Wally Veres Aktiv 83 / 78 40% 2 25.01.2027 -
Juan Mosquera Sheffield Wednesday Aktiv 114 / 116 40% 1 25.01.2027 -
Harry Clarke Preston Aktiv 122 / 131 40% 1 25.01.2027 -
Lwanda Mbanjwa Maritzburg United Aktiv 82 / 108 40% 1 25.01.2027 -
Rayan Bournemouth Aktiv 132 / 138 40% 1 23.01.2027 -
Hazeem Bakre Crawley Town Aktiv 89 / 92 40% 1 23.01.2027 -
Will Lankshear Middlesbrough Aktiv 134 / 127 40% 1 22.01.2027 -
Dramane Kamagaté USM Alger Aktiv 107 / 102 40% 1 22.01.2027 -
Mandla Erasmus SuperSport United Aktiv 129 / 129 40% 1 22.01.2027 -
Florentino Luís Ipswich Town Aktiv 139 / 137 40% 1 22.01.2027 -
Ilir Krasniqi Polissia Aktiv 115 / 102 40% 1 21.01.2027 -
Trai Hume Sunderland Aktiv 129 / 125 40% 1 21.01.2027 -
Matheus Alves CSKA Moscow Aktiv 138 / 128 40% 3 17.01.2027 -
David Kalokoh Ajax Aktiv 109 / 110 40% 2 12.01.2027 -
Ezekiel Kwame Alladoh Philadelphia Union Aktiv 113 / 116 40% 2 11.01.2027 -
Thomas Ofori BA All Stars Aktiv 80 / 96 40% 3 11.01.2027 -
Riley Owen Trento Aktiv 94 / 116 40% 1 10.01.2027 -
Baba Gyan Liberty Professionals Aktiv 86 / 87 40% 1 10.01.2027 -
Teddie Lamb Manchester City Aktiv 83 / 88 40% 1 08.01.2027 -
Matty Warhurst Manchester City Aktiv 77 / 98 40% 2 07.01.2027 -
Wesley Tarxien Rainbows Aktiv 93 / 103 40% 1 07.01.2027 -
Nico Valentine Colchester United Aktiv 93 / 98 40% 1 03.01.2027 -
Christian Krasnodar Aktiv 153 / 131 40% 2 01.01.2027 -
Nobel Mendy Hull City Aktiv 134 / 141 40% 1 01.01.2027 -
Thabang Matuludi Polokwane City Aktiv 123 / 110 40% 1 31.12.2026 -
Arkaitz Mariezkurrena Real Sociedad Aktiv 106 / 128 40% 3 28.12.2026 -
Matías Fernández-Pardo Newcastle United Aktiv 143 / 152 40% 1 28.12.2026 -
Jonás Luna Santa Clara Aktiv 115 / 124 40% 3 25.12.2026 -
Kieran Wilson Exeter City Aktiv 87 / 83 40% 1 23.12.2026 -
Nikolay Zlatev Cherno More Aktiv 111 / 99 40% 1 06.12.2026 -
Lévy Néne FC Nordsjaelland Aktiv 103 / 124 40% 2 03.12.2026 -
Adama Goïta Remo Stars Aktiv 108 / 113 40% 1 28.11.2026 -
Maren Kefas Plateau United Aktiv 71 / 87 40% 1 27.11.2026 -
Alexei Dominguez Pachuca Aktiv 115 / 106 40% 1 25.11.2026 -
Abubakar Garba Grasshopper Aktiv 99 / 104 40% 1 16.11.2026 -
Rayan Kolli Queens Park Rangers Aktiv 119 / 105 40% 1 10.11.2026 -
Michael Noumon Heart of Lions Aktiv 58 / 65 40% 1 10.11.2026 -
Agustín Fernández NK Zavrc Aktiv 80 / 95 40% 1 05.11.2026 -
João Gomes Aston Villa Aktiv 137 / 138 40% 1 04.11.2026 -
Max Conway Bolton Wanderers Aktiv 110 / 124 40% 1 03.11.2026 -
Joseph Arumala Ikorodu City Aktiv 80 / 87 40% 1 25.10.2026 -
Azeez Agboola Remo Stars Aktiv 82 / 71 40% 1 22.10.2026 -
Johnmark Atule Shooting Stars Aktiv 87 / 84 40% 1 22.10.2026 -
Géza Dávid Turi Grimsby Town Aktiv 88 / 91 40% 1 19.10.2026 -
Eseosa Sule West Bromwich Albion Aktiv 86 / 92 40% 1 17.10.2026 -
Brooklyn Poggenpoel Maritzburg United Aktiv 101 / 111 40% 1 14.10.2026 -
Malebogo Modise Polokwane City Aktiv 94 / 87 40% 1 14.10.2026 -
Ho-yeon Jung Minnesota United FC Aktiv 118 / 114 40% 1 13.10.2026 -
Suleiman Mojereola FC Diarra Aktiv 69 / 69 40% 1 13.10.2026 -
Cemran Dansin Orlando Pirates Aktiv 109 / 127 40% 1 11.10.2026 -
Nicolás Fernández Mercau Shakhtar Aktiv 130 / 126 40% 2 10.10.2026 -
David Brekalo Orlando City Aktiv 117 / 133 40% 1 09.10.2026 -
Rushwin Dortley Kaizer Chiefs Aktiv 124 / 110 40% 1 09.10.2026 -
Sinoxolo Kwayiba Chippa United Aktiv 122 / 117 40% 1 05.10.2026 -
Elías Báez Atlanta United FC Aktiv 117 / 125 40% 1 11.09.2026 -
Mustapha Jawad Kano Pillars Aktiv 82 / 101 40% 1 11.09.2026 -
Jannik Schuster Brentford Aktiv 93 / 103 40% 1 09.09.2026 -
Tom Atcheson Blackburn Rovers Aktiv 93 / 113 40% 1 09.09.2026 -
Stefan Bajčetić Liverpool Aktiv 124 / 131 40% 1 01.08.2026 -